Airfield :
LOGIN :

Register | Disclaimer

   EN    FR    IT 

 










Legend :    VFR   Marginal VFR   IFR   Intensive IFR   Very Intensive IFR
Visi :
Ceiling :
>= 8 km
>= 3000ft
5 to 8 km
1000 to 3000 ft
1500m to 5 km
500 to 1000 ft
800 to 1500m
200 to 500 ft
< 800m
< 200 ft
Symbols :   Thunderstorms  Fog  Heavy snow  Heavy precipitations  Wind > 20 kt
SIGMETs :     Misc.  Thunderstorms  Icing  Turbulence  Mountain Waves  Volcanic Ashes






- Airport Elevation : 183 ft
- IATA code : HAJ


EDDV - Hanover/Langenhagen Int.

CURRENT METAR :
  • 290750Z AUTO 08005KT 9999 OVC017 04/03 Q1017 BECMG BKN014

EXPIRED METARs :
  • 290720Z AUTO 07004KT 9999 OVC017 04/03 Q1016 BECMG BKN014
  • 290650Z AUTO 09003KT 9999 BKN018 04/03 Q1016 BECMG BKN014
  • 290620Z AUTO 09004KT 9999 OVC019 04/03 Q1016 BECMG BKN014
  • 290550Z AUTO 08005KT 9999 -RADZ OVC019 04/03 Q1016 BECMG BKN014
  • 290520Z AUTO 09005KT 9999 OVC020 04/03 Q1015 BECMG BKN014

TAF TAF EDDV
Valid from the 29 at 06:00 until the 30 at 06:00 UTC


290500Z 2906/3006 08004KT 9999 OVC015
TEMPO 2906/2915 OVC013
PROB30
TEMPO 2906/2911 4500 -RADZ BKN009
BECMG 2915/2917 OVC013
TEMPO 2916/3006 2500 -DZ BR BKN006



MET'MAP, your aeronautical weather chart ! - Copyright ORBIFLY December 2007 - Disclaimer

ORBIFLY MET'MAP TEAM :

Programming & Development : Alexandra Zaïnal
Original concept : Baudouin d'Aumeries
Technical & hardware support : Manuel Goepfert
Assistance : Marc-Olivier Méhu




SOURCES & CREDITS :

   NOAA